Terminal Aerodrome Forecast
Issued by NWS Sioux Falls, SD

Home | Current Version | Previous Version | Text Only | Print | Product List | Glossary On
Versions: 1 2 3 4 5 6 7 8 9 10 11 12 13 14 15 16 17 18 19 20 21 22 23 24 25 26 27
000
FTUS43 KFSD 211120
TAFSUX
TAF
KSUX 211120Z 2112/2212 18009KT P6SM SKC
     FM211800 19012G18KT P6SM SCT250
     FM220200 15005KT P6SM SCT100 BKN250
     FM220800 09004KT P6SM FEW100 BKN250=

USA.gov is the U.S. government's official web portal to all federal, state and local government web resources and services.